Abingdon, MD

11:35 AM EST on January 29, 2015 (GMT -0500)
Box Hill | Change Station
CLOSE
Current Station
Personal Weather Station
Location: Abingdon, MD
Elevation: 130 ft
Nearby Weather Stations

Elev 130 ft 39.48 °N, 76.30 °W | Updated 2 minutes ago

Overcast
Overcast
30.6 °F
Feels Like 31 °F
N
3.0
Wind Variable Wind from South
Gusts 3.0 mph

Today
High -- | Low -- °F
--% Chance of Precip.
Yesterday
High -- | Low -- °F
Precip. -- in
7:15 AM 5:21 PM
Waxing Gibbous, 75% visible
Pressure 30.30 in
Visibility 7.0 miles
Clouds Mostly Cloudy 12000 ft
Overcast 20000 ft
Windchill 31 °F
Dew Point 13 °F
Humidity 48%
Rainfall 0.00 in
Snow Depth Not available.
UV 1 out of 12
Pollen .30 out of 12
Air Quality Not available.
Flu Activity Not available.
METAR KAPG 291558Z 15006KT 7SM BKN120 OVC200 M01/M11 A3030

More Conditions Fewer Conditions

Pressure 30.30 in
Visibility 7.0 miles
Clouds Mostly Cloudy 12000 ft
Overcast 20000 ft
Windchill 31 °F
Dew Point 13 °F
Humidity 48%
Rainfall 0.00 in
Snow Depth Not available.
UV 1 out of 12
Pollen .30 out of 12
Air Quality Not available.
Flu Activity Not available.
METAR KAPG 291558Z 15006KT 7SM BKN120 OVC200 M01/M11 A3030

More Conditions Fewer Conditions

10-Day Weather Forecast

Almanac

Astronomy

Jan. 29, 2015 Rise Set
Actual Time
Civil Twilight
Nautical Twilight
Astronomical Twilight
Moon
Length of Visible Light
Length of Day
Tomorrow will be .
, % of the Moon is Illuminated

Today's Extremes

State Highs State Lows

Community

WunderPhotos

Upload Photos

1,791,475 photos uploaded!

WunderBlogs® & News

Nearby

Air Quality

  Air Quality AQ Index Pollutant
Not available.

Snow Depth

Station Depth Elevation

Earthquake Activity

City Distance Mag. Time & Date
Minimum magnitude displayed is 2.5.

Coastal Water Temperatures

Place Temperature

Nearby Weather Stations